sensor_id;sensor_type;location;lat;lon;timestamp;P1;durP1;ratioP1;P2;durP2;ratioP2
38226;SDS011;24026;49.446;8.576;2023-04-03T00:00:23;119.32;;;106.50;;
38226;SDS011;24026;49.446;8.576;2023-04-03T00:02:43;123.43;;;110.32;;
38226;SDS011;24026;49.446;8.576;2023-04-03T00:05:04;121.57;;;108.55;;
38226;SDS011;24026;49.446;8.576;2023-04-03T00:07:25;121.35;;;108.40;;
38226;SDS011;24026;49.446;8.576;2023-04-03T00:09:45;118.30;;;105.53;;
38226;SDS011;24026;49.446;8.576;2023-04-03T00:12:06;121.18;;;108.25;;
38226;SDS011;24026;49.446;8.576;2023-04-03T00:14:26;119.75;;;106.85;;
38226;SDS011;24026;49.446;8.576;2023-04-03T00:16:49;121.53;;;108.57;;
38226;SDS011;24026;49.446;8.576;2023-04-03T00:19:10;122.63;;;109.63;;
38226;SDS011;24026;49.446;8.576;2023-04-03T00:21:31;119.82;;;106.75;;
38226;SDS011;24026;49.446;8.576;2023-04-03T00:23:52;122.13;;;109.13;;
38226;SDS011;24026;49.446;8.576;2023-04-03T00:26:12;120.15;;;107.18;;
38226;SDS011;24026;49.446;8.576;2023-04-03T00:28:33;119.97;;;107.00;;
38226;SDS011;24026;49.446;8.576;2023-04-03T00:30:53;121.50;;;108.50;;
38226;SDS011;24026;49.446;8.576;2023-04-03T00:33:14;121.60;;;108.63;;
38226;SDS011;24026;49.446;8.576;2023-04-03T00:35:34;119.07;;;106.20;;
38226;SDS011;24026;49.446;8.576;2023-04-03T00:37:55;121.43;;;108.40;;
38226;SDS011;24026;49.446;8.576;2023-04-03T00:40:16;118.72;;;105.85;;
38226;SDS011;24026;49.446;8.576;2023-04-03T00:42:36;121.18;;;108.28;;
38226;SDS011;24026;49.446;8.576;2023-04-03T00:47:20;118.95;;;106.03;;
38226;SDS011;24026;49.446;8.576;2023-04-03T00:49:41;122.47;;;109.45;;
38226;SDS011;24026;49.446;8.576;2023-04-03T00:52:02;122.57;;;109.55;;
38226;SDS011;24026;49.446;8.576;2023-04-03T00:54:26;122.22;;;109.20;;
38226;SDS011;24026;49.446;8.576;2023-04-03T00:56:47;122.82;;;109.80;;
38226;SDS011;24026;49.446;8.576;2023-04-03T00:59:16;119.80;;;106.88;;
38226;SDS011;24026;49.446;8.576;2023-04-03T01:01:43;117.82;;;104.90;;
38226;SDS011;24026;49.446;8.576;2023-04-03T01:04:04;119.97;;;107.18;;
38226;SDS011;24026;49.446;8.576;2023-04-03T01:06:28;121.68;;;108.68;;
38226;SDS011;24026;49.446;8.576;2023-04-03T01:08:53;118.13;;;105.28;;
38226;SDS011;24026;49.446;8.576;2023-04-03T01:11:15;121.10;;;108.13;;
38226;SDS011;24026;49.446;8.576;2023-04-03T01:13:36;120.45;;;107.50;;
38226;SDS011;24026;49.446;8.576;2023-04-03T01:15:56;119.88;;;107.03;;
38226;SDS011;24026;49.446;8.576;2023-04-03T01:18:17;121.55;;;108.57;;
38226;SDS011;24026;49.446;8.576;2023-04-03T01:26:13;119.80;;;106.80;;
38226;SDS011;24026;49.446;8.576;2023-04-03T01:28:34;120.93;;;107.95;;
38226;SDS011;24026;49.446;8.576;2023-04-03T01:33:50;115.28;;;102.47;;
38226;SDS011;24026;49.446;8.576;2023-04-03T01:36:16;120.57;;;107.65;;
38226;SDS011;24026;49.446;8.576;2023-04-03T01:38:38;118.80;;;105.88;;
38226;SDS011;24026;49.446;8.576;2023-04-03T01:40:59;117.97;;;105.13;;
38226;SDS011;24026;49.446;8.576;2023-04-03T01:43:20;119.63;;;106.78;;
38226;SDS011;24026;49.446;8.576;2023-04-03T01:45:40;120.35;;;107.45;;
38226;SDS011;24026;49.446;8.576;2023-04-03T01:48:01;118.95;;;106.13;;
38226;SDS011;24026;49.446;8.576;2023-04-03T01:50:22;116.60;;;103.80;;
38226;SDS011;24026;49.446;8.576;2023-04-03T01:52:42;119.95;;;107.00;;
38226;SDS011;24026;49.446;8.576;2023-04-03T01:55:02;117.22;;;104.40;;
38226;SDS011;24026;49.446;8.576;2023-04-03T01:57:23;120.70;;;107.78;;
38226;SDS011;24026;49.446;8.576;2023-04-03T01:59:44;120.43;;;107.45;;
38226;SDS011;24026;49.446;8.576;2023-04-03T02:02:04;120.40;;;107.40;;
38226;SDS011;24026;49.446;8.576;2023-04-03T02:04:25;119.45;;;106.55;;
38226;SDS011;24026;49.446;8.576;2023-04-03T02:06:45;120.28;;;107.43;;
38226;SDS011;24026;49.446;8.576;2023-04-03T02:09:06;118.95;;;106.07;;
38226;SDS011;24026;49.446;8.576;2023-04-03T02:11:26;121.13;;;107.97;;
38226;SDS011;24026;49.446;8.576;2023-04-03T02:13:47;117.72;;;104.93;;
38226;SDS011;24026;49.446;8.576;2023-04-03T02:16:08;120.72;;;107.75;;
38226;SDS011;24026;49.446;8.576;2023-04-03T02:18:29;121.70;;;108.60;;
38226;SDS011;24026;49.446;8.576;2023-04-03T02:20:50;118.10;;;105.22;;
38226;SDS011;24026;49.446;8.576;2023-04-03T02:23:10;120.05;;;107.13;;
38226;SDS011;24026;49.446;8.576;2023-04-03T02:25:33;119.32;;;106.43;;
38226;SDS011;24026;49.446;8.576;2023-04-03T02:27:54;118.20;;;105.38;;
38226;SDS011;24026;49.446;8.576;2023-04-03T02:30:14;120.05;;;107.05;;
38226;SDS011;24026;49.446;8.576;2023-04-03T02:32:35;117.47;;;104.68;;
38226;SDS011;24026;49.446;8.576;2023-04-03T02:34:56;120.80;;;107.82;;
38226;SDS011;24026;49.446;8.576;2023-04-03T02:37:16;116.07;;;103.13;;
38226;SDS011;24026;49.446;8.576;2023-04-03T02:39:36;120.15;;;107.15;;
38226;SDS011;24026;49.446;8.576;2023-04-03T02:41:57;118.00;;;105.15;;
38226;SDS011;24026;49.446;8.576;2023-04-03T02:44:17;119.53;;;106.72;;
38226;SDS011;24026;49.446;8.576;2023-04-03T02:46:38;118.07;;;105.25;;
38226;SDS011;24026;49.446;8.576;2023-04-03T02:48:59;120.15;;;107.15;;
38226;SDS011;24026;49.446;8.576;2023-04-03T02:51:19;119.20;;;106.32;;
38226;SDS011;24026;49.446;8.576;2023-04-03T02:53:40;119.03;;;106.13;;
38226;SDS011;24026;49.446;8.576;2023-04-03T02:56:01;121.15;;;108.15;;
38226;SDS011;24026;49.446;8.576;2023-04-03T02:58:21;119.43;;;106.43;;
38226;SDS011;24026;49.446;8.576;2023-04-03T03:00:41;120.75;;;107.70;;
38226;SDS011;24026;49.446;8.576;2023-04-03T03:03:02;120.55;;;107.55;;
38226;SDS011;24026;49.446;8.576;2023-04-03T03:05:23;117.82;;;104.90;;
38226;SDS011;24026;49.446;8.576;2023-04-03T03:07:43;119.90;;;106.95;;
38226;SDS011;24026;49.446;8.576;2023-04-03T03:10:04;117.25;;;104.38;;
38226;SDS011;24026;49.446;8.576;2023-04-03T03:12:25;116.15;;;103.07;;
38226;SDS011;24026;49.446;8.576;2023-04-03T03:14:45;120.75;;;107.68;;
38226;SDS011;24026;49.446;8.576;2023-04-03T03:17:05;117.45;;;104.60;;
38226;SDS011;24026;49.446;8.576;2023-04-03T03:19:26;119.45;;;106.50;;
38226;SDS011;24026;49.446;8.576;2023-04-03T03:21:46;117.13;;;104.28;;
38226;SDS011;24026;49.446;8.576;2023-04-03T03:24:06;115.90;;;103.13;;
38226;SDS011;24026;49.446;8.576;2023-04-03T03:26:27;119.78;;;106.93;;
38226;SDS011;24026;49.446;8.576;2023-04-03T03:28:48;118.07;;;105.15;;
38226;SDS011;24026;49.446;8.576;2023-04-03T03:31:08;119.10;;;106.25;;
38226;SDS011;24026;49.446;8.576;2023-04-03T03:33:30;117.05;;;103.85;;
38226;SDS011;24026;49.446;8.576;2023-04-03T03:35:51;119.28;;;106.40;;
38226;SDS011;24026;49.446;8.576;2023-04-03T03:38:12;116.70;;;103.90;;
38226;SDS011;24026;49.446;8.576;2023-04-03T03:40:32;119.88;;;106.90;;
38226;SDS011;24026;49.446;8.576;2023-04-03T03:42:53;115.43;;;102.60;;
38226;SDS011;24026;49.446;8.576;2023-04-03T03:45:13;119.55;;;106.55;;
38226;SDS011;24026;49.446;8.576;2023-04-03T03:47:34;119.38;;;106.50;;
38226;SDS011;24026;49.446;8.576;2023-04-03T03:49:55;118.22;;;105.25;;
38226;SDS011;24026;49.446;8.576;2023-04-03T03:52:15;121.00;;;107.97;;
38226;SDS011;24026;49.446;8.576;2023-04-03T03:54:36;119.28;;;106.38;;
38226;SDS011;24026;49.446;8.576;2023-04-03T03:56:57;114.80;;;102.15;;
38226;SDS011;24026;49.446;8.576;2023-04-03T03:59:18;120.60;;;107.47;;
38226;SDS011;24026;49.446;8.576;2023-04-03T04:01:38;120.70;;;107.72;;
38226;SDS011;24026;49.446;8.576;2023-04-03T04:03:59;116.78;;;103.72;;
38226;SDS011;24026;49.446;8.576;2023-04-03T04:06:20;119.43;;;106.45;;
38226;SDS011;24026;49.446;8.576;2023-04-03T04:08:41;120.25;;;107.30;;
38226;SDS011;24026;49.446;8.576;2023-04-03T04:11:01;118.40;;;105.57;;
38226;SDS011;24026;49.446;8.576;2023-04-03T04:13:22;118.95;;;106.03;;
38226;SDS011;24026;49.446;8.576;2023-04-03T04:15:43;120.85;;;107.88;;
38226;SDS011;24026;49.446;8.576;2023-04-03T04:18:04;120.60;;;107.60;;
38226;SDS011;24026;49.446;8.576;2023-04-03T04:20:24;119.05;;;106.10;;
38226;SDS011;24026;49.446;8.576;2023-04-03T04:22:45;120.03;;;107.05;;
38226;SDS011;24026;49.446;8.576;2023-04-03T04:25:05;119.35;;;106.43;;
38226;SDS011;24026;49.446;8.576;2023-04-03T04:27:26;119.40;;;106.40;;
38226;SDS011;24026;49.446;8.576;2023-04-03T04:29:46;116.28;;;103.53;;
38226;SDS011;24026;49.446;8.576;2023-04-03T04:32:07;119.30;;;106.40;;
38226;SDS011;24026;49.446;8.576;2023-04-03T04:34:28;117.18;;;104.18;;
38226;SDS011;24026;49.446;8.576;2023-04-03T04:36:49;118.95;;;106.10;;
38226;SDS011;24026;49.446;8.576;2023-04-03T04:39:10;119.72;;;106.82;;
38226;SDS011;24026;49.446;8.576;2023-04-03T04:41:31;116.18;;;103.40;;
38226;SDS011;24026;49.446;8.576;2023-04-03T04:43:51;117.88;;;105.00;;
38226;SDS011;24026;49.446;8.576;2023-04-03T04:46:12;118.88;;;105.88;;
38226;SDS011;24026;49.446;8.576;2023-04-03T04:48:33;116.60;;;103.85;;
38226;SDS011;24026;49.446;8.576;2023-04-03T04:50:54;118.43;;;105.55;;
38226;SDS011;24026;49.446;8.576;2023-04-03T04:53:15;115.80;;;102.95;;
38226;SDS011;24026;49.446;8.576;2023-04-03T04:55:35;120.35;;;107.38;;
38226;SDS011;24026;49.446;8.576;2023-04-03T04:57:56;116.22;;;103.40;;
38226;SDS011;24026;49.446;8.576;2023-04-03T05:00:17;119.53;;;106.63;;
38226;SDS011;24026;49.446;8.576;2023-04-03T05:02:38;115.22;;;102.30;;
38226;SDS011;24026;49.446;8.576;2023-04-03T05:04:59;119.63;;;106.65;;
38226;SDS011;24026;49.446;8.576;2023-04-03T05:07:20;120.82;;;107.82;;
38226;SDS011;24026;49.446;8.576;2023-04-03T05:09:41;120.13;;;107.07;;
38226;SDS011;24026;49.446;8.576;2023-04-03T05:12:02;140.50;;;125.43;;
38226;SDS011;24026;49.446;8.576;2023-04-03T05:14:23;131.48;;;117.43;;
38226;SDS011;24026;49.446;8.576;2023-04-03T05:16:43;128.20;;;114.55;;
38226;SDS011;24026;49.446;8.576;2023-04-03T05:19:04;142.82;;;127.53;;
38226;SDS011;24026;49.446;8.576;2023-04-03T05:21:24;196.18;;;175.88;;
38226;SDS011;24026;49.446;8.576;2023-04-03T05:23:46;157.38;;;140.18;;
38226;SDS011;24026;49.446;8.576;2023-04-03T05:26:06;146.57;;;130.45;;
38226;SDS011;24026;49.446;8.576;2023-04-03T05:28:26;140.70;;;125.75;;
38226;SDS011;24026;49.446;8.576;2023-04-03T05:30:54;137.27;;;122.32;;
38226;SDS011;24026;49.446;8.576;2023-04-03T05:33:16;136.43;;;122.00;;
38226;SDS011;24026;49.446;8.576;2023-04-03T05:35:37;132.70;;;118.05;;
38226;SDS011;24026;49.446;8.576;2023-04-03T05:38:01;135.32;;;120.75;;
38226;SDS011;24026;49.446;8.576;2023-04-03T05:40:21;143.80;;;128.48;;
38226;SDS011;24026;49.446;8.576;2023-04-03T05:42:42;139.68;;;124.38;;
38226;SDS011;24026;49.446;8.576;2023-04-03T05:45:03;141.02;;;125.85;;
38226;SDS011;24026;49.446;8.576;2023-04-03T05:47:24;137.98;;;123.28;;
38226;SDS011;24026;49.446;8.576;2023-04-03T05:49:45;137.02;;;122.32;;
38226;SDS011;24026;49.446;8.576;2023-04-03T05:52:05;140.07;;;125.57;;
38226;SDS011;24026;49.446;8.576;2023-04-03T05:54:30;137.63;;;122.50;;
38226;SDS011;24026;49.446;8.576;2023-04-03T05:56:51;139.38;;;124.18;;
38226;SDS011;24026;49.446;8.576;2023-04-03T05:59:12;144.18;;;128.68;;
38226;SDS011;24026;49.446;8.576;2023-04-03T06:01:32;142.75;;;127.22;;
38226;SDS011;24026;49.446;8.576;2023-04-03T06:03:54;248.02;;;222.93;;
38226;SDS011;24026;49.446;8.576;2023-04-03T06:06:14;202.57;;;181.23;;
38226;SDS011;24026;49.446;8.576;2023-04-03T06:08:35;217.15;;;169.32;;
38226;SDS011;24026;49.446;8.576;2023-04-03T06:10:55;190.70;;;145.85;;
38226;SDS011;24026;49.446;8.576;2023-04-03T06:13:16;185.13;;;140.32;;
38226;SDS011;24026;49.446;8.576;2023-04-03T06:15:36;179.05;;;142.55;;
38226;SDS011;24026;49.446;8.576;2023-04-03T06:17:58;181.70;;;138.82;;
38226;SDS011;24026;49.446;8.576;2023-04-03T06:20:18;169.52;;;135.68;;
38226;SDS011;24026;49.446;8.576;2023-04-03T06:22:39;187.85;;;151.75;;
38226;SDS011;24026;49.446;8.576;2023-04-03T06:25:00;332.00;;;297.60;;
38226;SDS011;24026;49.446;8.576;2023-04-03T06:27:20;200.93;;;177.48;;
38226;SDS011;24026;49.446;8.576;2023-04-03T06:29:41;174.70;;;147.55;;
38226;SDS011;24026;49.446;8.576;2023-04-03T06:32:01;177.85;;;147.02;;
38226;SDS011;24026;49.446;8.576;2023-04-03T06:34:22;173.27;;;139.38;;
38226;SDS011;24026;49.446;8.576;2023-04-03T06:36:43;167.90;;;138.88;;
38226;SDS011;24026;49.446;8.576;2023-04-03T06:39:05;172.00;;;140.75;;
38226;SDS011;24026;49.446;8.576;2023-04-03T06:41:27;172.68;;;136.07;;
38226;SDS011;24026;49.446;8.576;2023-04-03T06:43:47;162.23;;;136.52;;
38226;SDS011;24026;49.446;8.576;2023-04-03T06:46:18;162.23;;;135.13;;
38226;SDS011;24026;49.446;8.576;2023-04-03T06:48:41;160.38;;;137.38;;
38226;SDS011;24026;49.446;8.576;2023-04-03T06:51:01;158.85;;;134.52;;
38226;SDS011;24026;49.446;8.576;2023-04-03T06:53:22;162.80;;;138.15;;
38226;SDS011;24026;49.446;8.576;2023-04-03T06:55:43;153.50;;;135.60;;
38226;SDS011;24026;49.446;8.576;2023-04-03T06:58:03;161.38;;;132.63;;
38226;SDS011;24026;49.446;8.576;2023-04-03T07:00:23;156.52;;;134.63;;
38226;SDS011;24026;49.446;8.576;2023-04-03T07:02:44;158.60;;;136.55;;
38226;SDS011;24026;49.446;8.576;2023-04-03T07:05:05;160.20;;;134.25;;
38226;SDS011;24026;49.446;8.576;2023-04-03T07:07:26;147.23;;;131.25;;
38226;SDS011;24026;49.446;8.576;2023-04-03T07:09:46;149.88;;;132.82;;
38226;SDS011;24026;49.446;8.576;2023-04-03T07:12:07;146.88;;;130.30;;
38226;SDS011;24026;49.446;8.576;2023-04-03T07:14:28;149.23;;;132.98;;
38226;SDS011;24026;49.446;8.576;2023-04-03T07:16:48;147.52;;;131.82;;
38226;SDS011;24026;49.446;8.576;2023-04-03T07:19:09;149.15;;;132.82;;
38226;SDS011;24026;49.446;8.576;2023-04-03T07:21:39;149.30;;;133.15;;
38226;SDS011;24026;49.446;8.576;2023-04-03T07:24:00;148.10;;;131.88;;
38226;SDS011;24026;49.446;8.576;2023-04-03T07:26:21;151.00;;;134.80;;
38226;SDS011;24026;49.446;8.576;2023-04-03T07:28:42;149.73;;;133.88;;
38226;SDS011;24026;49.446;8.576;2023-04-03T07:31:05;149.80;;;134.05;;
38226;SDS011;24026;49.446;8.576;2023-04-03T07:33:28;148.85;;;133.35;;
38226;SDS011;24026;49.446;8.576;2023-04-03T07:35:49;146.07;;;130.18;;
38226;SDS011;24026;49.446;8.576;2023-04-03T07:38:10;148.40;;;132.90;;
38226;SDS011;24026;49.446;8.576;2023-04-03T07:40:31;151.35;;;135.15;;
38226;SDS011;24026;49.446;8.576;2023-04-03T07:42:52;149.93;;;134.25;;
38226;SDS011;24026;49.446;8.576;2023-04-03T07:45:12;153.63;;;137.32;;
38226;SDS011;24026;49.446;8.576;2023-04-03T07:47:33;154.18;;;137.65;;
38226;SDS011;24026;49.446;8.576;2023-04-03T07:49:53;156.23;;;139.30;;
38226;SDS011;24026;49.446;8.576;2023-04-03T07:52:14;147.02;;;117.00;;
38226;SDS011;24026;49.446;8.576;2023-04-03T07:54:35;143.95;;;119.53;;
38226;SDS011;24026;49.446;8.576;2023-04-03T07:56:55;149.10;;;120.75;;
38226;SDS011;24026;49.446;8.576;2023-04-03T07:59:17;154.70;;;136.07;;
38226;SDS011;24026;49.446;8.576;2023-04-03T08:01:37;185.20;;;166.63;;
38226;SDS011;24026;49.446;8.576;2023-04-03T08:03:57;188.32;;;169.60;;
38226;SDS011;24026;49.446;8.576;2023-04-03T08:06:18;182.52;;;164.43;;
38226;SDS011;24026;49.446;8.576;2023-04-03T08:08:38;168.60;;;150.95;;
38226;SDS011;24026;49.446;8.576;2023-04-03T08:11:00;169.75;;;152.38;;
38226;SDS011;24026;49.446;8.576;2023-04-03T08:13:22;162.82;;;144.80;;
38226;SDS011;24026;49.446;8.576;2023-04-03T08:15:42;160.45;;;143.30;;
38226;SDS011;24026;49.446;8.576;2023-04-03T08:18:03;160.25;;;143.57;;
38226;SDS011;24026;49.446;8.576;2023-04-03T08:20:24;154.70;;;137.70;;
38226;SDS011;24026;49.446;8.576;2023-04-03T08:22:44;164.93;;;136.57;;
38226;SDS011;24026;49.446;8.576;2023-04-03T08:25:05;157.23;;;140.02;;
38226;SDS011;24026;49.446;8.576;2023-04-03T08:27:27;156.07;;;139.15;;
38226;SDS011;24026;49.446;8.576;2023-04-03T08:29:48;159.18;;;141.23;;
38226;SDS011;24026;49.446;8.576;2023-04-03T08:32:08;160.07;;;140.98;;
38226;SDS011;24026;49.446;8.576;2023-04-03T08:34:29;156.05;;;137.77;;
38226;SDS011;24026;49.446;8.576;2023-04-03T08:36:49;155.90;;;139.40;;
38226;SDS011;24026;49.446;8.576;2023-04-03T08:39:10;154.95;;;138.85;;
38226;SDS011;24026;49.446;8.576;2023-04-03T08:41:33;154.10;;;137.82;;
38226;SDS011;24026;49.446;8.576;2023-04-03T08:44:03;155.80;;;139.25;;
38226;SDS011;24026;49.446;8.576;2023-04-03T08:46:49;154.02;;;137.77;;
38226;SDS011;24026;49.446;8.576;2023-04-03T08:51:53;163.07;;;136.82;;
38226;SDS011;24026;49.446;8.576;2023-04-03T08:57:17;154.25;;;136.55;;
38226;SDS011;24026;49.446;8.576;2023-04-03T08:59:46;161.13;;;142.85;;
38226;SDS011;24026;49.446;8.576;2023-04-03T09:04:49;160.55;;;137.82;;
38226;SDS011;24026;49.446;8.576;2023-04-03T09:07:13;163.02;;;141.35;;
38226;SDS011;24026;49.446;8.576;2023-04-03T09:09:42;157.80;;;137.90;;
38226;SDS011;24026;49.446;8.576;2023-04-03T09:22:55;161.73;;;140.63;;
38226;SDS011;24026;49.446;8.576;2023-04-03T09:25:23;161.52;;;141.63;;
38226;SDS011;24026;49.446;8.576;2023-04-03T09:27:47;156.15;;;136.52;;
38226;SDS011;24026;49.446;8.576;2023-04-03T09:30:29;159.15;;;137.95;;
38226;SDS011;24026;49.446;8.576;2023-04-03T09:32:50;163.45;;;136.23;;
38226;SDS011;24026;49.446;8.576;2023-04-03T09:40:05;168.90;;;142.18;;
38226;SDS011;24026;49.446;8.576;2023-04-03T09:42:46;157.35;;;137.40;;
38226;SDS011;24026;49.446;8.576;2023-04-03T09:45:18;163.63;;;141.32;;
38226;SDS011;24026;49.446;8.576;2023-04-03T09:47:43;160.20;;;142.38;;
38226;SDS011;24026;49.446;8.576;2023-04-03T09:52:33;160.82;;;143.15;;
38226;SDS011;24026;49.446;8.576;2023-04-03T09:54:54;157.30;;;140.32;;
38226;SDS011;24026;49.446;8.576;2023-04-03T09:57:28;167.27;;;146.00;;
38226;SDS011;24026;49.446;8.576;2023-04-03T09:59:58;168.38;;;149.93;;
38226;SDS011;24026;49.446;8.576;2023-04-03T10:04:47;164.88;;;145.27;;
38226;SDS011;24026;49.446;8.576;2023-04-03T10:09:54;165.10;;;147.45;;
38226;SDS011;24026;49.446;8.576;2023-04-03T10:12:17;164.57;;;147.15;;
38226;SDS011;24026;49.446;8.576;2023-04-03T10:17:29;163.27;;;146.05;;
38226;SDS011;24026;49.446;8.576;2023-04-03T10:25:20;161.13;;;144.05;;
38226;SDS011;24026;49.446;8.576;2023-04-03T10:31:05;168.88;;;151.00;;
38226;SDS011;24026;49.446;8.576;2023-04-03T10:33:39;168.98;;;151.68;;
38226;SDS011;24026;49.446;8.576;2023-04-03T10:41:45;166.25;;;148.48;;
38226;SDS011;24026;49.446;8.576;2023-04-03T10:47:18;161.95;;;144.43;;
38226;SDS011;24026;49.446;8.576;2023-04-03T10:50:00;161.93;;;144.43;;
38226;SDS011;24026;49.446;8.576;2023-04-03T10:52:47;162.48;;;143.23;;
38226;SDS011;24026;49.446;8.576;2023-04-03T11:01:26;154.60;;;138.25;;
38226;SDS011;24026;49.446;8.576;2023-04-03T11:03:53;157.57;;;140.57;;
38226;SDS011;24026;49.446;8.576;2023-04-03T11:06:17;154.93;;;138.60;;
38226;SDS011;24026;49.446;8.576;2023-04-03T11:08:44;162.50;;;145.73;;
38226;SDS011;24026;49.446;8.576;2023-04-03T11:11:11;168.20;;;150.68;;
38226;SDS011;24026;49.446;8.576;2023-04-03T11:13:38;169.05;;;150.45;;
38226;SDS011;24026;49.446;8.576;2023-04-03T11:16:03;160.30;;;143.15;;
38226;SDS011;24026;49.446;8.576;2023-04-03T11:18:31;157.73;;;137.20;;
38226;SDS011;24026;49.446;8.576;2023-04-03T11:23:42;169.20;;;140.15;;
38226;SDS011;24026;49.446;8.576;2023-04-03T11:26:07;157.95;;;139.43;;
38226;SDS011;24026;49.446;8.576;2023-04-03T11:28:30;154.18;;;137.23;;
38226;SDS011;24026;49.446;8.576;2023-04-03T11:30:59;155.43;;;138.75;;
38226;SDS011;24026;49.446;8.576;2023-04-03T11:36:12;151.43;;;135.20;;
38226;SDS011;24026;49.446;8.576;2023-04-03T11:38:42;150.85;;;135.20;;
38226;SDS011;24026;49.446;8.576;2023-04-03T11:41:06;152.20;;;135.45;;
38226;SDS011;24026;49.446;8.576;2023-04-03T11:43:29;151.07;;;134.80;;
38226;SDS011;24026;49.446;8.576;2023-04-03T12:05:49;162.43;;;145.93;;
38226;SDS011;24026;49.446;8.576;2023-04-03T12:13:29;162.10;;;144.88;;
38226;SDS011;24026;49.446;8.576;2023-04-03T12:15:50;161.52;;;144.82;;
38226;SDS011;24026;49.446;8.576;2023-04-03T12:19:00;161.27;;;145.30;;
38226;SDS011;24026;49.446;8.576;2023-04-03T12:21:05;163.88;;;146.50;;
38226;SDS011;24026;49.446;8.576;2023-04-03T12:23:28;166.02;;;148.43;;
38226;SDS011;24026;49.446;8.576;2023-04-03T12:25:53;193.43;;;174.07;;
38226;SDS011;24026;49.446;8.576;2023-04-03T12:28:24;187.10;;;168.30;;
38226;SDS011;24026;49.446;8.576;2023-04-03T12:30:46;180.90;;;161.73;;
38226;SDS011;24026;49.446;8.576;2023-04-03T12:40:36;164.88;;;147.85;;
38226;SDS011;24026;49.446;8.576;2023-04-03T12:45:24;162.60;;;145.77;;
38226;SDS011;24026;49.446;8.576;2023-04-03T12:47:45;161.25;;;144.93;;
38226;SDS011;24026;49.446;8.576;2023-04-03T12:50:20;163.00;;;146.65;;
38226;SDS011;24026;49.446;8.576;2023-04-03T12:52:49;162.77;;;146.23;;
38226;SDS011;24026;49.446;8.576;2023-04-03T12:55:18;160.10;;;143.38;;
38226;SDS011;24026;49.446;8.576;2023-04-03T12:57:40;160.63;;;144.37;;
38226;SDS011;24026;49.446;8.576;2023-04-03T13:00:05;159.20;;;143.15;;
38226;SDS011;24026;49.446;8.576;2023-04-03T13:02:43;161.20;;;144.18;;
38226;SDS011;24026;49.446;8.576;2023-04-03T13:05:07;160.70;;;144.02;;
38226;SDS011;24026;49.446;8.576;2023-04-03T13:07:31;188.13;;;148.50;;
38226;SDS011;24026;49.446;8.576;2023-04-03T13:09:57;185.32;;;148.30;;
38226;SDS011;24026;49.446;8.576;2023-04-03T13:12:45;170.15;;;145.07;;
38226;SDS011;24026;49.446;8.576;2023-04-03T13:15:12;160.93;;;143.45;;
38226;SDS011;24026;49.446;8.576;2023-04-03T13:17:38;160.65;;;143.25;;
38226;SDS011;24026;49.446;8.576;2023-04-03T13:20:09;167.13;;;144.02;;
38226;SDS011;24026;49.446;8.576;2023-04-03T13:22:36;170.23;;;147.82;;
38226;SDS011;24026;49.446;8.576;2023-04-03T13:25:03;162.32;;;144.90;;
38226;SDS011;24026;49.446;8.576;2023-04-03T13:27:26;162.93;;;145.40;;
38226;SDS011;24026;49.446;8.576;2023-04-03T13:29:50;162.32;;;144.63;;
38226;SDS011;24026;49.446;8.576;2023-04-03T13:32:17;156.70;;;139.90;;
38226;SDS011;24026;49.446;8.576;2023-04-03T13:34:41;159.98;;;142.40;;
38226;SDS011;24026;49.446;8.576;2023-04-03T13:37:03;159.10;;;141.57;;
38226;SDS011;24026;49.446;8.576;2023-04-03T13:39:26;156.40;;;139.50;;
38226;SDS011;24026;49.446;8.576;2023-04-03T13:41:54;169.68;;;152.10;;
38226;SDS011;24026;49.446;8.576;2023-04-03T13:46:36;161.33;;;144.33;;
38226;SDS011;24026;49.446;8.576;2023-04-03T13:48:56;163.73;;;146.13;;
38226;SDS011;24026;49.446;8.576;2023-04-03T13:51:37;163.65;;;146.23;;
38226;SDS011;24026;49.446;8.576;2023-04-03T13:53:59;163.60;;;146.05;;
38226;SDS011;24026;49.446;8.576;2023-04-03T13:56:34;161.70;;;145.02;;
38226;SDS011;24026;49.446;8.576;2023-04-03T13:59:05;165.15;;;147.82;;
38226;SDS011;24026;49.446;8.576;2023-04-03T14:01:43;165.80;;;147.95;;
38226;SDS011;24026;49.446;8.576;2023-04-03T14:04:24;165.65;;;148.27;;
38226;SDS011;24026;49.446;8.576;2023-04-03T14:06:48;162.40;;;145.32;;
38226;SDS011;24026;49.446;8.576;2023-04-03T14:09:08;162.77;;;145.70;;
38226;SDS011;24026;49.446;8.576;2023-04-03T14:11:29;162.55;;;145.10;;
38226;SDS011;24026;49.446;8.576;2023-04-03T14:13:50;161.38;;;144.10;;
38226;SDS011;24026;49.446;8.576;2023-04-03T14:16:22;161.00;;;143.55;;
38226;SDS011;24026;49.446;8.576;2023-04-03T14:18:47;161.65;;;144.32;;
38226;SDS011;24026;49.446;8.576;2023-04-03T14:21:13;161.05;;;144.23;;
38226;SDS011;24026;49.446;8.576;2023-04-03T14:23:35;161.20;;;143.67;;
38226;SDS011;24026;49.446;8.576;2023-04-03T14:25:56;161.43;;;144.32;;
38226;SDS011;24026;49.446;8.576;2023-04-03T14:28:20;160.23;;;143.10;;
38226;SDS011;24026;49.446;8.576;2023-04-03T14:30:41;158.75;;;142.30;;
38226;SDS011;24026;49.446;8.576;2023-04-03T14:33:02;162.15;;;144.98;;
38226;SDS011;24026;49.446;8.576;2023-04-03T14:35:23;165.77;;;148.10;;
38226;SDS011;24026;49.446;8.576;2023-04-03T14:37:44;165.05;;;147.38;;
38226;SDS011;24026;49.446;8.576;2023-04-03T14:40:07;168.27;;;150.32;;
38226;SDS011;24026;49.446;8.576;2023-04-03T14:42:30;167.40;;;150.05;;
38226;SDS011;24026;49.446;8.576;2023-04-03T14:44:52;166.40;;;148.70;;
38226;SDS011;24026;49.446;8.576;2023-04-03T14:47:13;164.10;;;147.02;;
38226;SDS011;24026;49.446;8.576;2023-04-03T14:49:46;162.52;;;145.23;;
38226;SDS011;24026;49.446;8.576;2023-04-03T14:52:09;163.18;;;145.80;;
38226;SDS011;24026;49.446;8.576;2023-04-03T14:54:40;163.85;;;146.73;;
38226;SDS011;24026;49.446;8.576;2023-04-03T14:57:01;164.02;;;147.00;;
38226;SDS011;24026;49.446;8.576;2023-04-03T14:59:22;164.85;;;147.48;;
38226;SDS011;24026;49.446;8.576;2023-04-03T15:01:43;164.32;;;147.20;;
38226;SDS011;24026;49.446;8.576;2023-04-03T15:04:13;163.63;;;146.13;;
38226;SDS011;24026;49.446;8.576;2023-04-03T15:06:34;163.18;;;146.57;;
38226;SDS011;24026;49.446;8.576;2023-04-03T15:08:55;164.20;;;147.10;;
38226;SDS011;24026;49.446;8.576;2023-04-03T15:11:15;163.82;;;147.20;;
38226;SDS011;24026;49.446;8.576;2023-04-03T15:13:36;162.88;;;145.43;;
38226;SDS011;24026;49.446;8.576;2023-04-03T15:15:57;161.60;;;144.57;;
38226;SDS011;24026;49.446;8.576;2023-04-03T15:18:22;160.73;;;144.60;;
38226;SDS011;24026;49.446;8.576;2023-04-03T15:20:46;159.60;;;143.15;;
38226;SDS011;24026;49.446;8.576;2023-04-03T15:23:08;160.38;;;144.05;;